Baker, Oregon
Current Conditions -  °F | °C
As of 8:53 PM on Wednesday 22 Oct 2014 (Local Time) from KBKE Reporting Station
Light Rain Light Rain  
Wind Chill: 52°   Ceiling: 6500
Heat Index: 52°   Visibility: 10mi
Dew Point: 37°   Wind: 12mph
Humidity: 57%   Direction: 100°E
Pressure: 29.95"   Gusts: NA
Location:  44.7595°N, 117.716°W
Report Text: KBKE 230353Z AUTO 10010KT 10SM -RA OVC065 11/03 A2995 RMK AO2 SLP140 P0000 T01110028 $
Loading
Personal Weather Stations






























Interactive Weather Map
Tropical Storm Tracking
New forecast layout! Learn more

10-Day Weather Forecast

Advertisements
Track Severe Weather on mobile